sensor_id;sensor_type;location;lat;lon;timestamp;P1;durP1;ratioP1;P2;durP2;ratioP2
52360;SDS011;38294;42.966;1.608;2022-11-20T03:24:03;6.82;;;3.85;;
52360;SDS011;38294;42.966;1.608;2022-11-20T03:26:29;7.00;;;3.50;;
52360;SDS011;38294;42.966;1.608;2022-11-20T03:28:56;5.13;;;3.08;;
52360;SDS011;38294;42.966;1.608;2022-11-20T03:31:27;4.73;;;3.23;;
52360;SDS011;38294;42.966;1.608;2022-11-20T03:33:57;5.82;;;3.25;;
52360;SDS011;38294;42.966;1.608;2022-11-20T03:36:23;6.43;;;3.00;;
52360;SDS011;38294;42.966;1.608;2022-11-20T03:38:50;5.03;;;3.08;;
52360;SDS011;38294;42.966;1.608;2022-11-20T03:41:22;4.00;;;2.70;;
52360;SDS011;38294;42.966;1.608;2022-11-20T03:43:51;5.35;;;3.13;;
52360;SDS011;38294;42.966;1.608;2022-11-20T03:46:19;5.00;;;3.20;;
52360;SDS011;38294;42.966;1.608;2022-11-20T03:48:44;7.15;;;2.97;;
52360;SDS011;38294;42.966;1.608;2022-11-20T03:51:11;4.57;;;3.05;;
52360;SDS011;38294;42.966;1.608;2022-11-20T03:53:44;5.88;;;3.53;;
52360;SDS011;38294;42.966;1.608;2022-11-20T03:56:11;4.70;;;2.92;;
52360;SDS011;38294;42.966;1.608;2022-11-20T03:58:39;8.38;;;3.28;;
52360;SDS011;38294;42.966;1.608;2022-11-20T04:01:06;5.40;;;3.55;;
52360;SDS011;38294;42.966;1.608;2022-11-20T04:03:33;6.93;;;3.63;;
52360;SDS011;38294;42.966;1.608;2022-11-20T04:06:04;7.90;;;2.60;;
52360;SDS011;38294;42.966;1.608;2022-11-20T04:11:07;6.78;;;3.08;;
52360;SDS011;38294;42.966;1.608;2022-11-20T04:13:35;3.53;;;2.70;;
52360;SDS011;38294;42.966;1.608;2022-11-20T04:16:01;3.05;;;2.40;;
52360;SDS011;38294;42.966;1.608;2022-11-20T04:18:26;4.70;;;2.30;;
52360;SDS011;38294;42.966;1.608;2022-11-20T04:20:52;4.93;;;3.10;;
52360;SDS011;38294;42.966;1.608;2022-11-20T04:23:17;3.75;;;2.70;;
52360;SDS011;38294;42.966;1.608;2022-11-20T04:25:43;8.95;;;2.92;;
52360;SDS011;38294;42.966;1.608;2022-11-20T04:28:08;3.97;;;2.45;;
52360;SDS011;38294;42.966;1.608;2022-11-20T04:30:34;5.10;;;2.83;;
52360;SDS011;38294;42.966;1.608;2022-11-20T04:33:00;4.78;;;2.38;;
52360;SDS011;38294;42.966;1.608;2022-11-20T04:35:25;5.47;;;2.78;;
52360;SDS011;38294;42.966;1.608;2022-11-20T04:37:51;5.50;;;2.47;;
52360;SDS011;38294;42.966;1.608;2022-11-20T04:40:17;4.95;;;2.50;;
52360;SDS011;38294;42.966;1.608;2022-11-20T04:42:42;3.53;;;2.67;;
52360;SDS011;38294;42.966;1.608;2022-11-20T04:45:08;5.05;;;2.65;;
52360;SDS011;38294;42.966;1.608;2022-11-20T04:47:34;5.72;;;2.72;;
52360;SDS011;38294;42.966;1.608;2022-11-20T04:49:59;3.65;;;2.75;;
52360;SDS011;38294;42.966;1.608;2022-11-20T04:52:25;3.03;;;2.28;;
52360;SDS011;38294;42.966;1.608;2022-11-20T04:54:50;6.03;;;2.90;;
52360;SDS011;38294;42.966;1.608;2022-11-20T04:57:18;3.28;;;2.53;;
52360;SDS011;38294;42.966;1.608;2022-11-20T04:59:44;3.35;;;2.53;;
52360;SDS011;38294;42.966;1.608;2022-11-20T05:02:10;6.22;;;2.72;;
52360;SDS011;38294;42.966;1.608;2022-11-20T05:04:35;4.32;;;2.67;;
52360;SDS011;38294;42.966;1.608;2022-11-20T05:07:01;6.00;;;2.58;;
52360;SDS011;38294;42.966;1.608;2022-11-20T05:09:27;2.92;;;2.45;;
52360;SDS011;38294;42.966;1.608;2022-11-20T05:11:52;5.43;;;3.40;;
52360;SDS011;38294;42.966;1.608;2022-11-20T05:14:17;2.92;;;2.60;;
52360;SDS011;38294;42.966;1.608;2022-11-20T05:16:43;2.60;;;2.40;;
52360;SDS011;38294;42.966;1.608;2022-11-20T05:19:09;3.58;;;2.92;;
52360;SDS011;38294;42.966;1.608;2022-11-20T05:21:34;3.90;;;2.50;;
52360;SDS011;38294;42.966;1.608;2022-11-20T05:23:59;6.43;;;2.85;;
52360;SDS011;38294;42.966;1.608;2022-11-20T05:26:25;3.17;;;2.20;;
52360;SDS011;38294;42.966;1.608;2022-11-20T05:28:51;3.40;;;2.42;;
52360;SDS011;38294;42.966;1.608;2022-11-20T05:31:17;3.72;;;2.88;;
52360;SDS011;38294;42.966;1.608;2022-11-20T05:33:45;4.88;;;2.80;;
52360;SDS011;38294;42.966;1.608;2022-11-20T05:36:11;2.72;;;2.45;;
52360;SDS011;38294;42.966;1.608;2022-11-20T05:38:38;3.88;;;2.67;;
52360;SDS011;38294;42.966;1.608;2022-11-20T05:43:41;3.33;;;2.33;;
52360;SDS011;38294;42.966;1.608;2022-11-20T05:46:08;4.38;;;2.50;;
52360;SDS011;38294;42.966;1.608;2022-11-20T05:48:38;3.90;;;2.30;;
52360;SDS011;38294;42.966;1.608;2022-11-20T05:51:05;2.70;;;2.50;;
52360;SDS011;38294;42.966;1.608;2022-11-20T05:53:33;3.15;;;2.50;;
52360;SDS011;38294;42.966;1.608;2022-11-20T05:56:06;4.55;;;2.85;;
52360;SDS011;38294;42.966;1.608;2022-11-20T05:58:35;6.22;;;2.78;;
52360;SDS011;38294;42.966;1.608;2022-11-20T06:03:46;4.00;;;2.92;;
52360;SDS011;38294;42.966;1.608;2022-11-20T06:06:13;3.83;;;3.17;;
52360;SDS011;38294;42.966;1.608;2022-11-20T06:08:39;3.08;;;2.78;;
52360;SDS011;38294;42.966;1.608;2022-11-20T06:11:06;5.45;;;2.78;;
52360;SDS011;38294;42.966;1.608;2022-11-20T06:13:33;3.13;;;2.47;;
52360;SDS011;38294;42.966;1.608;2022-11-20T06:15:59;4.18;;;2.80;;
52360;SDS011;38294;42.966;1.608;2022-11-20T06:18:26;4.63;;;2.75;;
52360;SDS011;38294;42.966;1.608;2022-11-20T06:20:59;5.90;;;3.72;;
52360;SDS011;38294;42.966;1.608;2022-11-20T06:23:30;4.85;;;3.40;;
52360;SDS011;38294;42.966;1.608;2022-11-20T06:26:00;4.43;;;3.30;;
52360;SDS011;38294;42.966;1.608;2022-11-20T06:28:27;3.70;;;3.20;;
52360;SDS011;38294;42.966;1.608;2022-11-20T06:30:53;6.40;;;3.08;;
52360;SDS011;38294;42.966;1.608;2022-11-20T06:33:19;4.50;;;3.28;;
52360;SDS011;38294;42.966;1.608;2022-11-20T06:35:44;3.70;;;2.90;;
52360;SDS011;38294;42.966;1.608;2022-11-20T06:38:09;6.47;;;3.30;;
52360;SDS011;38294;42.966;1.608;2022-11-20T06:40:35;5.13;;;3.45;;
52360;SDS011;38294;42.966;1.608;2022-11-20T06:43:00;4.10;;;3.03;;
52360;SDS011;38294;42.966;1.608;2022-11-20T06:45:26;5.05;;;3.42;;
52360;SDS011;38294;42.966;1.608;2022-11-20T06:47:51;4.78;;;3.50;;
52360;SDS011;38294;42.966;1.608;2022-11-20T06:50:17;5.32;;;3.00;;
52360;SDS011;38294;42.966;1.608;2022-11-20T06:52:42;4.82;;;2.75;;
52360;SDS011;38294;42.966;1.608;2022-11-20T06:55:08;3.90;;;2.90;;
52360;SDS011;38294;42.966;1.608;2022-11-20T06:57:33;4.15;;;3.05;;
52360;SDS011;38294;42.966;1.608;2022-11-20T06:59:59;3.72;;;3.20;;
52360;SDS011;38294;42.966;1.608;2022-11-20T07:02:24;6.70;;;3.38;;
52360;SDS011;38294;42.966;1.608;2022-11-20T07:04:50;3.97;;;3.28;;
52360;SDS011;38294;42.966;1.608;2022-11-20T07:07:15;4.03;;;3.20;;
52360;SDS011;38294;42.966;1.608;2022-11-20T07:09:41;4.78;;;3.40;;
52360;SDS011;38294;42.966;1.608;2022-11-20T07:12:06;3.85;;;3.10;;
52360;SDS011;38294;42.966;1.608;2022-11-20T07:14:33;4.90;;;3.30;;
52360;SDS011;38294;42.966;1.608;2022-11-20T07:16:58;3.00;;;2.63;;
52360;SDS011;38294;42.966;1.608;2022-11-20T07:19:24;3.45;;;3.15;;
52360;SDS011;38294;42.966;1.608;2022-11-20T07:21:49;4.65;;;3.33;;
52360;SDS011;38294;42.966;1.608;2022-11-20T07:24:15;6.28;;;3.72;;
52360;SDS011;38294;42.966;1.608;2022-11-20T07:26:40;4.38;;;2.97;;
52360;SDS011;38294;42.966;1.608;2022-11-20T07:29:06;3.65;;;3.10;;
52360;SDS011;38294;42.966;1.608;2022-11-20T07:31:31;4.13;;;2.97;;
52360;SDS011;38294;42.966;1.608;2022-11-20T07:33:57;6.05;;;3.60;;
52360;SDS011;38294;42.966;1.608;2022-11-20T07:36:22;7.18;;;3.22;;
52360;SDS011;38294;42.966;1.608;2022-11-20T07:38:48;4.38;;;3.10;;
52360;SDS011;38294;42.966;1.608;2022-11-20T07:41:13;3.60;;;2.70;;
52360;SDS011;38294;42.966;1.608;2022-11-20T07:43:39;6.13;;;3.65;;
52360;SDS011;38294;42.966;1.608;2022-11-20T07:46:05;3.40;;;3.10;;
52360;SDS011;38294;42.966;1.608;2022-11-20T07:48:31;5.82;;;2.80;;
52360;SDS011;38294;42.966;1.608;2022-11-20T07:50:56;5.30;;;3.22;;
52360;SDS011;38294;42.966;1.608;2022-11-20T07:53:22;9.23;;;3.15;;
52360;SDS011;38294;42.966;1.608;2022-11-20T07:55:48;8.73;;;2.88;;
52360;SDS011;38294;42.966;1.608;2022-11-20T07:58:15;3.92;;;3.30;;
52360;SDS011;38294;42.966;1.608;2022-11-20T08:00:40;4.90;;;3.28;;
52360;SDS011;38294;42.966;1.608;2022-11-20T08:03:06;11.95;;;3.40;;
52360;SDS011;38294;42.966;1.608;2022-11-20T08:05:32;5.53;;;3.75;;
52360;SDS011;38294;42.966;1.608;2022-11-20T08:07:58;9.88;;;3.28;;
52360;SDS011;38294;42.966;1.608;2022-11-20T08:10:24;6.97;;;3.50;;
52360;SDS011;38294;42.966;1.608;2022-11-20T08:12:50;5.15;;;3.50;;
52360;SDS011;38294;42.966;1.608;2022-11-20T08:15:35;4.13;;;3.17;;
52360;SDS011;38294;42.966;1.608;2022-11-20T08:18:06;4.35;;;3.08;;
52360;SDS011;38294;42.966;1.608;2022-11-20T08:20:36;4.95;;;3.25;;
52360;SDS011;38294;42.966;1.608;2022-11-20T08:23:03;6.20;;;2.80;;
52360;SDS011;38294;42.966;1.608;2022-11-20T08:25:36;4.38;;;3.08;;
52360;SDS011;38294;42.966;1.608;2022-11-20T08:28:07;5.00;;;3.10;;
52360;SDS011;38294;42.966;1.608;2022-11-20T08:30:34;5.20;;;2.60;;
52360;SDS011;38294;42.966;1.608;2022-11-20T08:33:04;4.13;;;2.88;;
52360;SDS011;38294;42.966;1.608;2022-11-20T08:35:36;4.03;;;2.92;;
52360;SDS011;38294;42.966;1.608;2022-11-20T08:38:03;5.00;;;2.95;;
52360;SDS011;38294;42.966;1.608;2022-11-20T08:40:29;5.05;;;2.90;;
52360;SDS011;38294;42.966;1.608;2022-11-20T08:42:55;5.93;;;2.63;;
52360;SDS011;38294;42.966;1.608;2022-11-20T08:45:21;3.65;;;2.88;;
52360;SDS011;38294;42.966;1.608;2022-11-20T08:47:46;5.70;;;3.08;;
52360;SDS011;38294;42.966;1.608;2022-11-20T08:50:13;2.80;;;2.40;;
52360;SDS011;38294;42.966;1.608;2022-11-20T08:52:39;3.70;;;2.88;;
52360;SDS011;38294;42.966;1.608;2022-11-20T08:55:05;5.30;;;3.33;;
52360;SDS011;38294;42.966;1.608;2022-11-20T08:57:32;3.30;;;2.45;;
52360;SDS011;38294;42.966;1.608;2022-11-20T08:59:58;4.60;;;2.60;;
52360;SDS011;38294;42.966;1.608;2022-11-20T09:02:24;4.55;;;2.47;;
52360;SDS011;38294;42.966;1.608;2022-11-20T09:04:49;4.43;;;2.40;;
52360;SDS011;38294;42.966;1.608;2022-11-20T09:07:15;2.63;;;2.10;;
52360;SDS011;38294;42.966;1.608;2022-11-20T09:09:40;5.03;;;2.65;;
52360;SDS011;38294;42.966;1.608;2022-11-20T09:12:06;4.80;;;2.60;;
52360;SDS011;38294;42.966;1.608;2022-11-20T09:14:32;5.13;;;2.92;;
52360;SDS011;38294;42.966;1.608;2022-11-20T09:16:58;4.68;;;3.10;;
52360;SDS011;38294;42.966;1.608;2022-11-20T09:19:24;5.53;;;3.08;;
52360;SDS011;38294;42.966;1.608;2022-11-20T09:21:50;3.75;;;2.83;;
52360;SDS011;38294;42.966;1.608;2022-11-20T09:24:16;4.72;;;3.08;;
52360;SDS011;38294;42.966;1.608;2022-11-20T09:26:42;5.55;;;3.50;;
52360;SDS011;38294;42.966;1.608;2022-11-20T09:29:08;4.18;;;2.92;;
52360;SDS011;38294;42.966;1.608;2022-11-20T09:31:34;6.90;;;2.80;;
52360;SDS011;38294;42.966;1.608;2022-11-20T09:33:59;4.18;;;2.83;;
52360;SDS011;38294;42.966;1.608;2022-11-20T09:36:25;5.15;;;2.20;;
52360;SDS011;38294;42.966;1.608;2022-11-20T09:38:51;4.22;;;2.42;;
52360;SDS011;38294;42.966;1.608;2022-11-20T09:47:12;2.05;;;1.50;;
52360;SDS011;38294;42.966;1.608;2022-11-20T09:52:30;2.63;;;1.67;;
52360;SDS011;38294;42.966;1.608;2022-11-20T09:55:15;3.25;;;1.90;;
52360;SDS011;38294;42.966;1.608;2022-11-20T09:57:42;2.97;;;2.10;;
52360;SDS011;38294;42.966;1.608;2022-11-20T10:00:12;3.33;;;2.25;;
52360;SDS011;38294;42.966;1.608;2022-11-20T10:02:44;3.60;;;2.00;;
52360;SDS011;38294;42.966;1.608;2022-11-20T10:05:35;3.08;;;1.70;;
52360;SDS011;38294;42.966;1.608;2022-11-20T10:10:49;2.72;;;1.90;;
52360;SDS011;38294;42.966;1.608;2022-11-20T10:16:08;4.35;;;2.30;;
52360;SDS011;38294;42.966;1.608;2022-11-20T10:24:56;1.55;;;1.30;;
52360;SDS011;38294;42.966;1.608;2022-11-20T10:27:41;2.00;;;1.60;;
52360;SDS011;38294;42.966;1.608;2022-11-20T10:30:15;3.50;;;1.67;;
52360;SDS011;38294;42.966;1.608;2022-11-20T10:32:43;2.97;;;2.08;;
52360;SDS011;38294;42.966;1.608;2022-11-20T10:37:42;1.70;;;1.55;;
52360;SDS011;38294;42.966;1.608;2022-11-20T10:40:27;2.92;;;1.70;;
52360;SDS011;38294;42.966;1.608;2022-11-20T10:43:20;3.30;;;1.70;;
52360;SDS011;38294;42.966;1.608;2022-11-20T10:45:56;1.80;;;1.40;;
52360;SDS011;38294;42.966;1.608;2022-11-20T10:48:26;1.23;;;1.13;;
52360;SDS011;38294;42.966;1.608;2022-11-20T10:51:02;3.63;;;1.40;;
52360;SDS011;38294;42.966;1.608;2022-11-20T10:59:04;3.10;;;2.00;;
52360;SDS011;38294;42.966;1.608;2022-11-20T11:02:15;1.92;;;1.23;;
52360;SDS011;38294;42.966;1.608;2022-11-20T11:04:52;4.50;;;1.95;;
52360;SDS011;38294;42.966;1.608;2022-11-20T11:07:29;3.72;;;1.90;;
52360;SDS011;38294;42.966;1.608;2022-11-20T11:10:00;1.83;;;1.55;;
52360;SDS011;38294;42.966;1.608;2022-11-20T11:12:27;2.03;;;1.65;;
52360;SDS011;38294;42.966;1.608;2022-11-20T11:14:55;2.25;;;1.80;;
52360;SDS011;38294;42.966;1.608;2022-11-20T11:17:28;3.15;;;1.50;;
52360;SDS011;38294;42.966;1.608;2022-11-20T11:22:43;3.78;;;2.00;;
52360;SDS011;38294;42.966;1.608;2022-11-20T11:27:51;3.50;;;2.13;;
52360;SDS011;38294;42.966;1.608;2022-11-20T11:30:20;4.75;;;2.15;;
52360;SDS011;38294;42.966;1.608;2022-11-20T11:32:46;3.28;;;2.25;;
52360;SDS011;38294;42.966;1.608;2022-11-20T11:35:22;5.40;;;2.20;;
52360;SDS011;38294;42.966;1.608;2022-11-20T11:37:52;2.45;;;2.17;;
52360;SDS011;38294;42.966;1.608;2022-11-20T11:40:31;4.00;;;2.28;;
52360;SDS011;38294;42.966;1.608;2022-11-20T11:42:59;4.13;;;2.75;;
52360;SDS011;38294;42.966;1.608;2022-11-20T11:45:27;3.90;;;2.75;;
52360;SDS011;38294;42.966;1.608;2022-11-20T11:47:53;2.50;;;2.00;;
52360;SDS011;38294;42.966;1.608;2022-11-20T11:50:22;5.88;;;2.72;;
52360;SDS011;38294;42.966;1.608;2022-11-20T11:53:02;5.50;;;2.50;;
52360;SDS011;38294;42.966;1.608;2022-11-20T12:03:42;3.72;;;2.75;;
52360;SDS011;38294;42.966;1.608;2022-11-20T12:06:17;2.75;;;1.80;;
52360;SDS011;38294;42.966;1.608;2022-11-20T12:08:50;2.67;;;1.80;;
52360;SDS011;38294;42.966;1.608;2022-11-20T12:14:04;3.90;;;2.40;;
52360;SDS011;38294;42.966;1.608;2022-11-20T12:19:01;1.88;;;1.42;;
52360;SDS011;38294;42.966;1.608;2022-11-20T12:21:50;2.75;;;1.48;;
52360;SDS011;38294;42.966;1.608;2022-11-20T12:24:24;1.75;;;1.30;;
52360;SDS011;38294;42.966;1.608;2022-11-20T12:27:15;1.67;;;1.20;;
52360;SDS011;38294;42.966;1.608;2022-11-20T12:44:16;2.38;;;1.58;;
52360;SDS011;38294;42.966;1.608;2022-11-20T12:47:28;3.15;;;1.60;;
52360;SDS011;38294;42.966;1.608;2022-11-20T12:58:00;8.32;;;4.38;;
52360;SDS011;38294;42.966;1.608;2022-11-20T13:04:47;2.38;;;1.52;;
52360;SDS011;38294;42.966;1.608;2022-11-20T13:07:12;2.03;;;1.20;;
52360;SDS011;38294;42.966;1.608;2022-11-20T13:09:42;4.68;;;2.22;;
52360;SDS011;38294;42.966;1.608;2022-11-20T13:17:21;2.40;;;1.35;;
52360;SDS011;38294;42.966;1.608;2022-11-20T13:22:28;1.10;;;1.00;;
52360;SDS011;38294;42.966;1.608;2022-11-20T13:25:10;2.35;;;1.85;;
52360;SDS011;38294;42.966;1.608;2022-11-20T13:27:47;3.35;;;2.15;;
52360;SDS011;38294;42.966;1.608;2022-11-20T13:30:15;3.85;;;1.60;;
52360;SDS011;38294;42.966;1.608;2022-11-20T13:32:47;1.63;;;1.13;;
52360;SDS011;38294;42.966;1.608;2022-11-20T13:35:23;2.90;;;1.20;;
52360;SDS011;38294;42.966;1.608;2022-11-20T13:38:02;1.25;;;0.90;;
52360;SDS011;38294;42.966;1.608;2022-11-20T13:40:30;4.65;;;1.48;;
52360;SDS011;38294;42.966;1.608;2022-11-20T13:46:08;0.93;;;0.80;;
52360;SDS011;38294;42.966;1.608;2022-11-20T13:48:41;3.65;;;1.73;;
52360;SDS011;38294;42.966;1.608;2022-11-20T14:02:35;3.33;;;1.27;;
52360;SDS011;38294;42.966;1.608;2022-11-20T14:05:01;2.15;;;1.05;;
52360;SDS011;38294;42.966;1.608;2022-11-20T14:07:34;4.45;;;1.48;;
52360;SDS011;38294;42.966;1.608;2022-11-20T14:10:04;5.22;;;1.35;;
52360;SDS011;38294;42.966;1.608;2022-11-20T14:12:32;3.10;;;1.15;;
52360;SDS011;38294;42.966;1.608;2022-11-20T14:14:59;5.25;;;1.70;;
52360;SDS011;38294;42.966;1.608;2022-11-20T14:19:54;6.00;;;1.63;;
52360;SDS011;38294;42.966;1.608;2022-11-20T14:22:24;3.58;;;1.80;;
52360;SDS011;38294;42.966;1.608;2022-11-20T14:25:02;5.93;;;2.15;;
52360;SDS011;38294;42.966;1.608;2022-11-20T14:27:39;4.55;;;2.65;;
52360;SDS011;38294;42.966;1.608;2022-11-20T14:30:12;3.90;;;2.30;;
52360;SDS011;38294;42.966;1.608;2022-11-20T14:32:39;3.45;;;2.20;;
52360;SDS011;38294;42.966;1.608;2022-11-20T14:35:08;3.95;;;2.40;;
52360;SDS011;38294;42.966;1.608;2022-11-20T14:37:37;4.80;;;2.67;;
52360;SDS011;38294;42.966;1.608;2022-11-20T14:40:14;6.25;;;3.33;;
52360;SDS011;38294;42.966;1.608;2022-11-20T14:42:46;8.50;;;3.42;;
52360;SDS011;38294;42.966;1.608;2022-11-20T14:45:12;5.25;;;3.60;;
52360;SDS011;38294;42.966;1.608;2022-11-20T14:47:38;14.43;;;5.60;;
52360;SDS011;38294;42.966;1.608;2022-11-20T14:50:07;6.70;;;4.05;;
52360;SDS011;38294;42.966;1.608;2022-11-20T14:52:49;7.85;;;3.53;;
52360;SDS011;38294;42.966;1.608;2022-11-20T14:55:24;5.97;;;3.22;;
52360;SDS011;38294;42.966;1.608;2022-11-20T14:57:55;7.95;;;2.90;;
52360;SDS011;38294;42.966;1.608;2022-11-20T15:00:22;7.10;;;3.05;;
52360;SDS011;38294;42.966;1.608;2022-11-20T15:02:49;10.25;;;2.40;;
52360;SDS011;38294;42.966;1.608;2022-11-20T15:05:17;5.70;;;1.80;;
52360;SDS011;38294;42.966;1.608;2022-11-20T15:07:45;7.30;;;2.10;;
52360;SDS011;38294;42.966;1.608;2022-11-20T15:10:20;6.82;;;2.15;;
52360;SDS011;38294;42.966;1.608;2022-11-20T15:16:08;5.18;;;1.98;;
52360;SDS011;38294;42.966;1.608;2022-11-20T15:18:04;6.53;;;1.67;;
52360;SDS011;38294;42.966;1.608;2022-11-20T15:20:34;8.98;;;2.40;;
52360;SDS011;38294;42.966;1.608;2022-11-20T15:23:01;9.18;;;2.15;;
52360;SDS011;38294;42.966;1.608;2022-11-20T15:25:26;11.85;;;2.40;;
52360;SDS011;38294;42.966;1.608;2022-11-20T15:27:55;27.80;;;12.95;;
52360;SDS011;38294;42.966;1.608;2022-11-20T15:30:21;17.50;;;6.63;;
52360;SDS011;38294;42.966;1.608;2022-11-20T15:32:48;11.50;;;2.65;;
52360;SDS011;38294;42.966;1.608;2022-11-20T15:35:14;12.55;;;3.78;;
52360;SDS011;38294;42.966;1.608;2022-11-20T15:37:40;12.27;;;3.25;;
52360;SDS011;38294;42.966;1.608;2022-11-20T15:40:07;7.32;;;2.75;;
52360;SDS011;38294;42.966;1.608;2022-11-20T15:42:33;8.32;;;3.38;;
52360;SDS011;38294;42.966;1.608;2022-11-20T15:44:59;12.02;;;3.58;;
52360;SDS011;38294;42.966;1.608;2022-11-20T15:47:29;14.30;;;3.67;;
52360;SDS011;38294;42.966;1.608;2022-11-20T15:49:57;10.65;;;2.63;;
52360;SDS011;38294;42.966;1.608;2022-11-20T15:52:23;9.13;;;3.55;;
52360;SDS011;38294;42.966;1.608;2022-11-20T15:54:48;9.30;;;3.47;;
52360;SDS011;38294;42.966;1.608;2022-11-20T15:57:14;9.25;;;2.33;;
52360;SDS011;38294;42.966;1.608;2022-11-20T15:59:39;10.55;;;2.42;;
52360;SDS011;38294;42.966;1.608;2022-11-20T16:02:12;9.63;;;3.03;;
52360;SDS011;38294;42.966;1.608;2022-11-20T16:04:39;8.68;;;1.98;;
52360;SDS011;38294;42.966;1.608;2022-11-20T16:07:05;8.77;;;2.20;;
52360;SDS011;38294;42.966;1.608;2022-11-20T16:09:30;9.88;;;2.33;;
52360;SDS011;38294;42.966;1.608;2022-11-20T16:11:56;12.35;;;2.88;;
52360;SDS011;38294;42.966;1.608;2022-11-20T16:14:25;13.93;;;3.88;;
52360;SDS011;38294;42.966;1.608;2022-11-20T16:17:09;7.60;;;3.13;;
52360;SDS011;38294;42.966;1.608;2022-11-20T16:19:36;13.63;;;5.22;;
52360;SDS011;38294;42.966;1.608;2022-11-20T16:22:01;12.52;;;3.70;;
52360;SDS011;38294;42.966;1.608;2022-11-20T16:24:27;8.85;;;2.80;;
52360;SDS011;38294;42.966;1.608;2022-11-20T16:26:53;9.05;;;2.08;;
52360;SDS011;38294;42.966;1.608;2022-11-20T16:29:19;11.02;;;4.55;;
52360;SDS011;38294;42.966;1.608;2022-11-20T16:31:45;9.70;;;2.75;;
52360;SDS011;38294;42.966;1.608;2022-11-20T16:34:11;6.63;;;2.88;;
52360;SDS011;38294;42.966;1.608;2022-11-20T16:36:38;7.47;;;2.22;;
52360;SDS011;38294;42.966;1.608;2022-11-20T16:39:05;7.95;;;2.10;;
52360;SDS011;38294;42.966;1.608;2022-11-20T16:41:31;8.73;;;2.97;;
52360;SDS011;38294;42.966;1.608;2022-11-20T16:43:59;4.25;;;2.17;;
52360;SDS011;38294;42.966;1.608;2022-11-20T16:46:31;11.35;;;2.75;;
52360;SDS011;38294;42.966;1.608;2022-11-20T16:48:58;9.52;;;4.13;;
52360;SDS011;38294;42.966;1.608;2022-11-20T16:51:25;7.85;;;2.47;;
52360;SDS011;38294;42.966;1.608;2022-11-20T16:53:52;5.47;;;1.73;;
52360;SDS011;38294;42.966;1.608;2022-11-20T16:56:20;6.95;;;1.73;;
52360;SDS011;38294;42.966;1.608;2022-11-20T16:58:48;4.47;;;1.42;;
52360;SDS011;38294;42.966;1.608;2022-11-20T17:01:18;5.32;;;2.28;;
52360;SDS011;38294;42.966;1.608;2022-11-20T17:03:54;3.92;;;1.35;;
52360;SDS011;38294;42.966;1.608;2022-11-20T17:06:20;2.92;;;1.15;;
52360;SDS011;38294;42.966;1.608;2022-11-20T17:08:48;7.68;;;1.40;;
52360;SDS011;38294;42.966;1.608;2022-11-20T17:11:15;9.20;;;2.17;;
52360;SDS011;38294;42.966;1.608;2022-11-20T17:13:42;12.07;;;6.25;;
52360;SDS011;38294;42.966;1.608;2022-11-20T17:16:09;5.13;;;2.13;;
52360;SDS011;38294;42.966;1.608;2022-11-20T17:18:37;15.00;;;5.05;;
52360;SDS011;38294;42.966;1.608;2022-11-20T17:21:04;5.13;;;2.20;;
52360;SDS011;38294;42.966;1.608;2022-11-20T17:24:03;7.90;;;1.80;;
52360;SDS011;38294;42.966;1.608;2022-11-20T17:26:23;17.13;;;3.97;;
52360;SDS011;38294;42.966;1.608;2022-11-20T17:29:09;8.00;;;2.53;;
52360;SDS011;38294;42.966;1.608;2022-11-20T17:31:37;10.75;;;2.38;;
52360;SDS011;38294;42.966;1.608;2022-11-20T17:34:03;3.83;;;1.75;;
52360;SDS011;38294;42.966;1.608;2022-11-20T17:36:32;4.82;;;1.70;;
52360;SDS011;38294;42.966;1.608;2022-11-20T17:38:57;10.80;;;2.40;;
52360;SDS011;38294;42.966;1.608;2022-11-20T17:41:24;8.80;;;2.08;;
52360;SDS011;38294;42.966;1.608;2022-11-20T17:43:53;12.35;;;2.55;;
52360;SDS011;38294;42.966;1.608;2022-11-20T17:46:20;9.52;;;2.90;;
52360;SDS011;38294;42.966;1.608;2022-11-20T17:48:47;12.45;;;4.60;;
52360;SDS011;38294;42.966;1.608;2022-11-20T17:51:15;7.90;;;2.47;;
52360;SDS011;38294;42.966;1.608;2022-11-20T17:53:42;5.47;;;1.98;;
52360;SDS011;38294;42.966;1.608;2022-11-20T17:56:09;12.02;;;2.25;;
52360;SDS011;38294;42.966;1.608;2022-11-20T17:58:54;11.35;;;3.75;;
52360;SDS011;38294;42.966;1.608;2022-11-20T18:01:19;9.93;;;2.47;;
52360;SDS011;38294;42.966;1.608;2022-11-20T18:03:45;14.43;;;2.53;;
52360;SDS011;38294;42.966;1.608;2022-11-20T18:06:18;8.80;;;2.40;;
52360;SDS011;38294;42.966;1.608;2022-11-20T18:08:46;8.63;;;2.72;;
52360;SDS011;38294;42.966;1.608;2022-11-20T18:11:14;5.70;;;1.67;;
52360;SDS011;38294;42.966;1.608;2022-11-20T18:13:42;7.07;;;2.08;;
52360;SDS011;38294;42.966;1.608;2022-11-20T18:16:28;8.35;;;1.77;;
52360;SDS011;38294;42.966;1.608;2022-11-20T18:18:55;6.57;;;1.60;;
52360;SDS011;38294;42.966;1.608;2022-11-20T18:21:22;10.05;;;3.78;;
52360;SDS011;38294;42.966;1.608;2022-11-20T18:23:49;4.97;;;1.60;;
52360;SDS011;38294;42.966;1.608;2022-11-20T18:26:15;6.15;;;1.50;;
52360;SDS011;38294;42.966;1.608;2022-11-20T18:28:41;4.05;;;1.73;;
52360;SDS011;38294;42.966;1.608;2022-11-20T18:31:07;4.07;;;1.60;;
52360;SDS011;38294;42.966;1.608;2022-11-20T18:33:34;6.43;;;1.75;;
52360;SDS011;38294;42.966;1.608;2022-11-20T18:36:10;3.40;;;1.60;;
52360;SDS011;38294;42.966;1.608;2022-11-20T18:38:38;6.22;;;1.95;;
52360;SDS011;38294;42.966;1.608;2022-11-20T18:41:13;3.50;;;2.03;;
52360;SDS011;38294;42.966;1.608;2022-11-20T18:44:00;6.25;;;1.50;;
52360;SDS011;38294;42.966;1.608;2022-11-20T18:46:45;5.03;;;1.80;;
52360;SDS011;38294;42.966;1.608;2022-11-20T18:49:11;6.07;;;2.47;;
52360;SDS011;38294;42.966;1.608;2022-11-20T18:51:38;4.40;;;2.03;;
52360;SDS011;38294;42.966;1.608;2022-11-20T18:54:04;9.45;;;3.22;;
52360;SDS011;38294;42.966;1.608;2022-11-20T18:56:30;5.20;;;2.35;;
52360;SDS011;38294;42.966;1.608;2022-11-20T18:58:58;7.22;;;2.00;;
52360;SDS011;38294;42.966;1.608;2022-11-20T19:01:24;4.30;;;1.80;;
52360;SDS011;38294;42.966;1.608;2022-11-20T19:03:50;6.28;;;1.90;;
52360;SDS011;38294;42.966;1.608;2022-11-20T19:06:15;11.23;;;1.80;;
52360;SDS011;38294;42.966;1.608;2022-11-20T19:08:41;6.88;;;3.47;;
52360;SDS011;38294;42.966;1.608;2022-11-20T19:11:08;6.10;;;2.70;;
52360;SDS011;38294;42.966;1.608;2022-11-20T19:13:35;7.05;;;3.10;;
52360;SDS011;38294;42.966;1.608;2022-11-20T19:16:02;10.93;;;3.58;;
52360;SDS011;38294;42.966;1.608;2022-11-20T19:18:29;7.50;;;3.05;;
52360;SDS011;38294;42.966;1.608;2022-11-20T19:20:54;10.98;;;3.45;;
52360;SDS011;38294;42.966;1.608;2022-11-20T19:23:20;7.07;;;3.20;;
52360;SDS011;38294;42.966;1.608;2022-11-20T19:25:46;7.43;;;2.92;;
52360;SDS011;38294;42.966;1.608;2022-11-20T19:28:12;6.22;;;2.80;;
52360;SDS011;38294;42.966;1.608;2022-11-20T19:30:38;7.03;;;3.30;;
52360;SDS011;38294;42.966;1.608;2022-11-20T19:33:05;9.00;;;3.60;;
52360;SDS011;38294;42.966;1.608;2022-11-20T19:35:31;9.43;;;2.83;;
52360;SDS011;38294;42.966;1.608;2022-11-20T19:37:57;8.30;;;3.33;;
52360;SDS011;38294;42.966;1.608;2022-11-20T19:40:23;7.38;;;2.75;;
52360;SDS011;38294;42.966;1.608;2022-11-20T19:42:48;4.85;;;2.58;;
52360;SDS011;38294;42.966;1.608;2022-11-20T19:45:14;7.15;;;2.60;;
52360;SDS011;38294;42.966;1.608;2022-11-20T19:47:39;6.72;;;3.00;;
52360;SDS011;38294;42.966;1.608;2022-11-20T19:50:05;7.50;;;3.47;;
52360;SDS011;38294;42.966;1.608;2022-11-20T19:52:31;4.88;;;2.35;;
52360;SDS011;38294;42.966;1.608;2022-11-20T19:54:57;5.38;;;2.38;;
52360;SDS011;38294;42.966;1.608;2022-11-20T19:57:23;6.63;;;1.60;;
52360;SDS011;38294;42.966;1.608;2022-11-20T19:59:48;3.60;;;1.48;;
52360;SDS011;38294;42.966;1.608;2022-11-20T20:02:14;5.22;;;1.90;;
52360;SDS011;38294;42.966;1.608;2022-11-20T20:04:39;4.50;;;2.00;;
52360;SDS011;38294;42.966;1.608;2022-11-20T20:07:05;4.72;;;1.50;;